Skip Navigation Links
NOAA logo - Click to go to the NOAA homepage
NOAA's National Weather Service
Alaska Aviation Weather Unit
  NWS logo - Click to go to the NWS homepage
Left Navbar Graphic     21 AKDT = 05 GMT

   
NOAA is celebrating 200 years of science, service, and stewardship. Visit the NOAA 200th celebration Web site to learn more.
USA.gov is the U.S. Government's official Web portal to all Federal, state and local government Web resources and services.
Facebook
NWS on Facebook

AAWU Home :: Display TAF Add Bookmark
TAF PAWG 262340Z 2700/2724 08009KT P6SM -SHRA SCT030 OVC050
     FM270400 11011G18KT 6SM -RA BR OVC025
     FM271100 15009KT P6SM VCSH SCT025 BKN050
     FM272000 13015G22KT P6SM -RA OVC045
      AMD LTD TO CLD VIS AND WIND 2706/2715=
PAWG 262345Z 10006KT 10SM SCT035 BKN040 BKN050 10/07 A2956=

PAWG 270045Z 19003KT 10SM -RA SCT035 BKN040 OVC050 10/06 A2957=

PAWG 270145Z 12005KT 10SM SCT035 BKN045 OVC060 10/06 A2957=

METAR PAWG 270156Z VRB04KT 10SM SCT035 BKN045 OVC060 10/06 A2957 RMK
 AO2 RAE46 SLP015 P0000 T01000061 $=

PAWG 270245Z 15004KT 10SM -RA SCT035 BKN045 OVC060 09/07 A2957=

PAWG 270345Z 00000KT 10SM -RA FEW030 SCT050 OVC060 09/06 A2959=

PAWG 270445Z 18008KT 8SM -RA SCT025 BKN050 OVC060 08/06 A2962=


NOAA's National Weather Service
Alaska Aviation Weather Unit
6930 Sand Lake Road
Anchorage, AK 99502-1845
Disclaimer
Credits
Glossary
Privacy Policy
About Us
Career Opportunities
Contact AAWU Internet Services Site last modified: April, 17th 2012